createdAt,value
2017-10-12T00:00:59.849Z,14.60
2017-10-12T00:01:59.791Z,14.59
2017-10-12T00:03:51.577Z,14.60
2017-10-12T00:04:51.522Z,14.59
2017-10-12T00:06:43.271Z,14.53
2017-10-12T00:07:43.213Z,14.54
2017-10-12T00:09:34.995Z,14.57
2017-10-12T00:10:34.939Z,14.54
2017-10-12T00:12:26.684Z,14.61
2017-10-12T00:13:26.627Z,14.64
2017-10-12T00:15:18.411Z,14.52
2017-10-12T00:16:18.356Z,14.46
2017-10-12T00:18:10.115Z,14.57
2017-10-12T00:19:10.053Z,14.52
2017-10-12T00:21:01.819Z,14.48
2017-10-12T00:22:01.773Z,14.57
2017-10-12T00:23:53.534Z,14.56
2017-10-12T00:24:53.466Z,14.52
2017-10-12T00:26:45.245Z,14.60
2017-10-12T00:27:45.193Z,14.61
2017-10-12T00:29:36.961Z,14.59
2017-10-12T00:30:36.895Z,14.56
2017-10-12T00:32:28.664Z,14.63
2017-10-12T00:33:28.608Z,14.49
2017-10-12T00:35:20.379Z,14.60
2017-10-12T00:36:20.315Z,14.54
2017-10-12T00:38:12.086Z,14.61
2017-10-12T00:39:12.026Z,14.53
2017-10-12T00:41:03.795Z,14.54
2017-10-12T00:42:03.731Z,14.60
2017-10-12T00:43:55.504Z,14.61
2017-10-12T00:44:55.443Z,14.64
2017-10-12T00:46:47.203Z,14.49
2017-10-12T00:47:47.147Z,14.56
2017-10-12T00:49:38.921Z,14.57
2017-10-12T00:50:38.859Z,14.57
2017-10-12T00:52:30.618Z,14.54
2017-10-12T00:53:30.562Z,14.54
2017-10-12T00:55:22.337Z,14.48
2017-10-12T00:56:22.276Z,14.45
2017-10-12T00:58:14.041Z,14.54
2017-10-12T00:59:13.983Z,14.48
2017-10-12T01:01:05.755Z,14.53
2017-10-12T01:02:05.694Z,14.54
2017-10-12T01:03:57.467Z,14.49
2017-10-12T01:04:57.409Z,14.48
2017-10-12T01:06:49.228Z,14.52
2017-10-12T01:07:49.116Z,14.52
2017-10-12T01:09:40.882Z,14.52
2017-10-12T01:10:40.824Z,14.52
2017-10-12T01:12:32.595Z,14.46
2017-10-12T01:13:32.534Z,14.53
2017-10-12T01:15:24.303Z,14.53
2017-10-12T01:16:24.246Z,14.49
2017-10-12T01:18:16.013Z,14.52
2017-10-12T01:19:15.952Z,14.52
2017-10-12T01:21:07.738Z,14.52
2017-10-12T01:22:07.671Z,14.53
2017-10-12T01:23:59.432Z,14.67
2017-10-12T01:24:59.374Z,14.59
2017-10-12T01:26:51.741Z,14.52
2017-10-12T01:27:51.490Z,14.49
2017-10-12T01:29:43.040Z,14.52
2017-10-12T01:30:42.981Z,14.49
2017-10-12T01:32:34.774Z,14.54
2017-10-12T01:33:34.710Z,14.45
2017-10-12T01:35:26.454Z,14.42
2017-10-12T01:36:26.400Z,14.39
2017-10-12T01:38:18.181Z,14.41
2017-10-12T01:39:18.127Z,14.31
2017-10-12T01:41:09.876Z,14.31
2017-10-12T01:42:09.815Z,14.29
2017-10-12T01:44:01.599Z,14.21
2017-10-12T01:45:01.544Z,14.23
2017-10-12T01:46:53.291Z,14.20
2017-10-12T01:47:53.238Z,14.11
2017-10-12T01:49:45.013Z,14.21
2017-10-12T01:50:44.966Z,14.16
2017-10-12T01:52:36.729Z,14.04
2017-10-12T01:53:36.655Z,14.11
2017-10-12T01:55:28.434Z,14.06
2017-10-12T01:56:28.378Z,14.01
2017-10-12T01:58:20.136Z,14.01
2017-10-12T01:59:20.068Z,14.02
2017-10-12T02:01:11.849Z,13.99
2017-10-12T02:02:11.794Z,13.99
2017-10-12T02:04:03.554Z,13.94
2017-10-12T02:05:03.485Z,13.87
2017-10-12T02:06:55.267Z,13.83
2017-10-12T02:07:55.212Z,13.84
2017-10-12T02:09:46.974Z,13.76
2017-10-12T02:10:46.900Z,13.81
2017-10-12T02:12:38.683Z,13.71
2017-10-12T02:13:38.628Z,13.73
2017-10-12T02:15:30.397Z,13.79
2017-10-12T02:16:30.316Z,13.65
2017-10-12T02:18:22.100Z,13.69
2017-10-12T02:19:22.046Z,13.54
2017-10-12T02:21:13.795Z,13.63
2017-10-12T02:22:13.735Z,13.54
2017-10-12T02:24:05.502Z,13.65
2017-10-12T02:25:05.462Z,13.62
2017-10-12T02:26:57.222Z,13.46
2017-10-12T02:27:57.151Z,13.55
2017-10-12T02:29:48.935Z,13.55
2017-10-12T02:30:48.879Z,13.43
2017-10-12T02:32:40.623Z,13.46
2017-10-12T02:33:40.567Z,13.51
2017-10-12T02:35:32.351Z,13.46
2017-10-12T02:36:32.296Z,13.39
2017-10-12T02:38:24.038Z,13.29
2017-10-12T02:39:23.980Z,13.31
2017-10-12T02:41:15.768Z,13.32
2017-10-12T02:42:15.713Z,13.25
2017-10-12T02:44:07.458Z,13.43
2017-10-12T02:45:07.399Z,13.29
2017-10-12T02:46:59.184Z,13.38
2017-10-12T02:47:59.109Z,13.29
2017-10-12T02:49:50.879Z,13.32
2017-10-12T02:50:50.818Z,13.43
2017-10-12T02:52:42.601Z,13.38
2017-10-12T02:53:42.525Z,13.36
2017-10-12T02:55:34.286Z,13.47
2017-10-12T02:56:34.230Z,13.50
2017-10-12T02:58:26.018Z,13.47
2017-10-12T02:59:25.935Z,13.31
2017-10-12T03:01:17.704Z,13.43
2017-10-12T03:02:17.642Z,13.53
2017-10-12T03:04:09.406Z,13.50
2017-10-12T03:05:09.346Z,13.59
2017-10-12T03:07:01.119Z,13.55
2017-10-12T03:08:01.057Z,13.51
2017-10-12T03:09:52.820Z,13.59
2017-10-12T03:10:52.761Z,13.55
2017-10-12T03:12:44.536Z,13.57
2017-10-12T03:13:44.473Z,13.59
2017-10-12T03:15:36.230Z,13.63
2017-10-12T03:16:36.168Z,13.51
2017-10-12T03:18:27.945Z,13.53
2017-10-12T03:19:27.897Z,13.66
2017-10-12T03:21:19.640Z,13.54
2017-10-12T03:22:19.581Z,13.61
2017-10-12T03:24:11.362Z,13.61
2017-10-12T03:25:11.307Z,13.48
2017-10-12T03:27:03.057Z,13.61
2017-10-12T03:28:02.995Z,13.54
2017-10-12T03:29:54.780Z,13.59
2017-10-12T03:30:54.724Z,13.59
2017-10-12T03:32:46.472Z,13.63
2017-10-12T03:33:46.414Z,13.53
2017-10-12T03:35:38.196Z,13.62
2017-10-12T03:36:38.140Z,13.55
2017-10-12T03:38:29.901Z,13.62
2017-10-12T03:39:29.831Z,13.68
2017-10-12T03:41:21.611Z,13.72
2017-10-12T03:42:21.558Z,13.73
2017-10-12T03:44:13.319Z,13.75
2017-10-12T03:45:13.246Z,13.86
2017-10-12T03:47:05.028Z,13.90
2017-10-12T03:48:04.974Z,13.83
2017-10-12T03:49:56.732Z,13.88
2017-10-12T03:50:56.670Z,13.83
2017-10-12T03:52:48.431Z,13.84
2017-10-12T03:53:48.391Z,13.87
2017-10-12T03:55:40.147Z,13.91
2017-10-12T03:56:40.078Z,13.96
2017-10-12T03:58:31.862Z,14.05
2017-10-12T03:59:31.807Z,13.96
2017-10-12T04:01:23.553Z,14.04
2017-10-12T04:02:23.493Z,14.04
2017-10-12T04:04:15.279Z,14.02
2017-10-12T04:05:15.203Z,14.04
2017-10-12T04:07:06.969Z,14.09
2017-10-12T04:08:06.912Z,13.98
2017-10-12T04:09:58.696Z,14.02
2017-10-12T04:10:58.642Z,14.06
2017-10-12T04:12:50.384Z,14.09
2017-10-12T04:13:50.328Z,14.05
2017-10-12T04:15:42.113Z,14.20
2017-10-12T04:16:42.037Z,14.08
2017-10-12T04:18:33.799Z,14.12
2017-10-12T04:19:33.741Z,14.09
2017-10-12T04:21:25.529Z,14.11
2017-10-12T04:22:25.456Z,14.13
2017-10-12T04:24:17.216Z,14.19
2017-10-12T04:25:17.162Z,14.20
2017-10-12T04:27:08.949Z,14.13
2017-10-12T04:28:08.872Z,14.16
2017-10-12T04:30:00.635Z,14.23
2017-10-12T04:31:00.579Z,14.24
2017-10-12T04:32:52.363Z,14.11
2017-10-12T04:33:52.289Z,14.13
2017-10-12T04:35:44.051Z,14.12
2017-10-12T04:36:43.992Z,14.08
2017-10-12T04:38:35.780Z,14.04
2017-10-12T04:39:35.725Z,14.04
2017-10-12T04:41:27.477Z,14.11
2017-10-12T04:42:27.415Z,14.09
2017-10-12T04:44:19.198Z,14.05
2017-10-12T04:45:19.120Z,14.08
2017-10-12T04:47:10.893Z,14.06
2017-10-12T04:48:10.832Z,13.99
2017-10-12T04:50:02.614Z,14.02
2017-10-12T04:51:02.536Z,14.04
2017-10-12T04:52:54.301Z,14.02
2017-10-12T04:53:54.243Z,13.99
2017-10-12T04:55:46.032Z,13.99
2017-10-12T04:56:45.976Z,14.02
2017-10-12T04:58:37.722Z,14.05
2017-10-12T04:59:37.664Z,14.04
2017-10-12T05:01:29.447Z,14.06
2017-10-12T05:02:29.378Z,14.09
2017-10-12T05:04:21.731Z,14.06
2017-10-12T05:05:21.462Z,14.13
2017-10-12T05:07:13.040Z,14.11
2017-10-12T05:08:12.978Z,14.17
2017-10-12T05:10:04.749Z,14.20
2017-10-12T05:11:04.688Z,14.19
2017-10-12T05:12:56.474Z,14.17
2017-10-12T05:13:56.399Z,14.19
2017-10-12T05:15:48.162Z,14.21
2017-10-12T05:16:48.101Z,14.26
2017-10-12T05:18:39.891Z,14.20
2017-10-12T05:19:39.827Z,14.26
2017-10-12T05:21:31.580Z,14.20
2017-10-12T05:22:31.518Z,14.23
2017-10-12T05:24:23.308Z,14.27
2017-10-12T05:25:23.226Z,14.21
2017-10-12T05:27:14.991Z,14.29
2017-10-12T05:28:14.932Z,14.34
2017-10-12T05:30:06.724Z,14.29
2017-10-12T05:31:06.639Z,14.34
2017-10-12T05:32:58.412Z,14.35
2017-10-12T05:33:58.351Z,14.42
2017-10-12T05:35:50.141Z,14.41
2017-10-12T05:36:50.058Z,14.41
2017-10-12T05:38:41.825Z,14.41
2017-10-12T05:39:41.767Z,14.41
2017-10-12T05:41:33.557Z,14.56
2017-10-12T05:42:33.473Z,14.48
2017-10-12T05:44:25.247Z,14.49
2017-10-12T05:45:25.184Z,14.52
2017-10-12T05:47:16.951Z,14.59
2017-10-12T05:48:16.893Z,14.49
2017-10-12T05:50:08.661Z,14.59
2017-10-12T05:51:08.604Z,14.54
2017-10-12T05:53:00.945Z,14.60
2017-10-12T05:54:00.688Z,14.60
2017-10-12T05:55:52.270Z,14.61
2017-10-12T05:56:52.210Z,14.53
2017-10-12T05:58:43.972Z,14.54
2017-10-12T05:59:43.912Z,14.60
2017-10-12T06:01:35.687Z,14.54
2017-10-12T06:02:35.631Z,14.53
2017-10-12T06:04:27.392Z,14.57
2017-10-12T06:05:27.336Z,14.61
2017-10-12T06:07:19.106Z,14.53
2017-10-12T06:08:19.043Z,14.52
2017-10-12T06:10:10.808Z,14.41
2017-10-12T06:11:10.750Z,14.49
2017-10-12T06:13:02.522Z,14.44
2017-10-12T06:14:02.458Z,14.38
2017-10-12T06:15:54.228Z,14.39
2017-10-12T06:16:54.172Z,14.39
2017-10-12T06:18:45.943Z,14.44
2017-10-12T06:19:45.880Z,14.38
2017-10-12T06:21:37.668Z,14.30
2017-10-12T06:22:37.590Z,14.36
2017-10-12T06:24:29.352Z,14.38
2017-10-12T06:25:29.297Z,14.41
2017-10-12T06:27:21.664Z,14.36
2017-10-12T06:28:21.398Z,14.42
2017-10-12T06:30:12.962Z,14.44
2017-10-12T06:31:12.903Z,14.34
2017-10-12T06:33:04.696Z,14.39
2017-10-12T06:34:04.613Z,14.41
2017-10-12T06:35:56.381Z,14.44
2017-10-12T06:36:56.319Z,14.45
2017-10-12T06:38:48.089Z,14.41
2017-10-12T06:39:48.027Z,14.53
2017-10-12T06:41:39.797Z,14.48
2017-10-12T06:42:39.738Z,14.49
2017-10-12T06:44:31.529Z,14.53
2017-10-12T06:45:31.442Z,14.53
2017-10-12T06:47:23.208Z,14.59
2017-10-12T06:48:23.149Z,14.56
2017-10-12T06:50:14.945Z,14.52
2017-10-12T06:51:14.863Z,14.54
2017-10-12T06:53:06.634Z,14.56
2017-10-12T06:54:06.571Z,14.56
2017-10-12T06:55:58.338Z,14.61
2017-10-12T06:56:58.281Z,14.57
2017-10-12T06:58:50.051Z,14.72
2017-10-12T06:59:49.992Z,14.72
2017-10-12T07:01:41.797Z,14.79
2017-10-12T07:02:41.702Z,14.75
2017-10-12T07:04:33.471Z,14.93
2017-10-12T07:05:33.411Z,14.94
2017-10-12T07:07:25.196Z,14.95
2017-10-12T07:08:25.121Z,14.85
2017-10-12T07:10:16.897Z,14.95
2017-10-12T07:11:16.830Z,14.95
2017-10-12T07:13:08.613Z,14.94
2017-10-12T07:14:08.559Z,14.97
2017-10-12T07:16:00.316Z,14.97
2017-10-12T07:17:00.249Z,14.95
2017-10-12T07:18:52.611Z,14.98
2017-10-12T07:19:52.362Z,14.97
2017-10-12T07:21:43.927Z,15.11
2017-10-12T07:22:43.856Z,15.05
2017-10-12T07:24:35.639Z,15.18
2017-10-12T07:25:35.585Z,15.33
2017-10-12T07:27:27.342Z,15.51
2017-10-12T07:28:27.279Z,15.62
2017-10-12T07:30:19.065Z,15.77
2017-10-12T07:31:19.001Z,15.76
2017-10-12T07:33:10.761Z,16.18
2017-10-12T07:34:10.704Z,15.96
2017-10-12T07:36:02.483Z,15.89
2017-10-12T07:37:02.420Z,15.77
2017-10-12T07:38:54.184Z,15.62
2017-10-12T07:39:54.126Z,15.60
2017-10-12T07:41:45.897Z,15.92
2017-10-12T07:42:45.836Z,16.16
2017-10-12T07:44:37.603Z,16.52
2017-10-12T07:45:37.549Z,16.14
2017-10-12T07:47:29.324Z,15.84
2017-10-12T07:48:29.263Z,15.89
2017-10-12T07:50:21.047Z,16.14
2017-10-12T07:51:20.992Z,16.14
2017-10-12T07:53:12.748Z,16.07
2017-10-12T07:54:12.683Z,15.93
2017-10-12T07:56:04.467Z,15.89
2017-10-12T07:57:04.411Z,15.84
2017-10-12T07:58:56.171Z,15.77
2017-10-12T07:59:56.107Z,15.60
2017-10-12T08:01:47.892Z,16.65
2017-10-12T08:02:47.827Z,17.20
2017-10-12T08:04:39.596Z,18.19
2017-10-12T08:05:39.536Z,18.50
2017-10-12T08:07:31.309Z,18.99
2017-10-12T08:08:31.254Z,18.86
2017-10-12T08:10:23.039Z,19.62
2017-10-12T08:11:22.986Z,19.60
2017-10-12T08:13:14.749Z,19.76
2017-10-12T08:14:14.687Z,19.78
2017-10-12T08:16:06.460Z,19.35
2017-10-12T08:17:06.407Z,18.84
2017-10-12T08:18:58.194Z,19.86
2017-10-12T08:19:58.142Z,19.45
2017-10-12T08:21:49.910Z,18.74
2017-10-12T08:22:49.858Z,18.97
2017-10-12T08:24:41.642Z,18.83
2017-10-12T08:25:41.577Z,18.78
2017-10-12T08:27:33.361Z,18.28
2017-10-12T08:28:33.305Z,19.09
2017-10-12T08:30:25.097Z,19.75
2017-10-12T08:31:25.026Z,18.93
2017-10-12T08:33:16.814Z,18.87
2017-10-12T08:34:16.753Z,18.90
2017-10-12T08:36:08.541Z,20.69
2017-10-12T08:37:08.487Z,20.96
2017-10-12T08:39:00.268Z,21.31
2017-10-12T08:40:00.211Z,21.63
2017-10-12T08:41:51.995Z,21.70
2017-10-12T08:42:51.941Z,21.61
2017-10-12T08:44:43.736Z,20.07
2017-10-12T08:45:43.684Z,19.95
2017-10-12T08:47:35.475Z,19.27
2017-10-12T08:48:35.420Z,19.02
2017-10-12T08:50:27.191Z,19.06
2017-10-12T08:51:27.134Z,18.78
2017-10-12T08:53:18.915Z,18.97
2017-10-12T08:54:18.857Z,18.83
2017-10-12T08:56:10.644Z,18.68
2017-10-12T08:57:10.587Z,18.31
2017-10-12T08:59:02.374Z,17.84
2017-10-12T09:00:02.319Z,17.76
2017-10-12T09:01:54.114Z,17.71
2017-10-12T09:02:54.036Z,18.82
2017-10-12T09:04:45.824Z,18.07
2017-10-12T09:05:45.756Z,17.76
2017-10-12T09:07:37.539Z,18.32
2017-10-12T09:08:37.483Z,18.46
2017-10-12T09:10:29.279Z,19.57
2017-10-12T09:11:29.217Z,19.46
2017-10-12T09:13:20.986Z,18.50
2017-10-12T09:14:20.934Z,18.16
2017-10-12T09:16:12.723Z,19.28
2017-10-12T09:17:12.653Z,19.80
2017-10-12T09:19:04.431Z,19.86
2017-10-12T09:20:04.380Z,20.48
2017-10-12T09:21:56.177Z,19.17
2017-10-12T09:22:56.115Z,18.87
2017-10-12T09:24:47.888Z,18.83
2017-10-12T09:25:47.835Z,18.96
2017-10-12T09:27:39.619Z,18.69
2017-10-12T09:28:39.558Z,18.20
2017-10-12T09:30:31.332Z,17.79
2017-10-12T09:31:31.281Z,17.46
2017-10-12T09:33:23.070Z,17.92
2017-10-12T09:34:23.014Z,17.89
2017-10-12T09:36:14.792Z,18.50
2017-10-12T09:37:14.733Z,18.87
2017-10-12T09:39:06.498Z,19.94
2017-10-12T09:40:06.445Z,20.12
2017-10-12T09:41:58.236Z,19.21
2017-10-12T09:42:58.175Z,18.94
2017-10-12T09:44:49.968Z,18.78
2017-10-12T09:45:49.912Z,18.60
2017-10-12T09:47:41.676Z,18.19
2017-10-12T09:48:41.615Z,17.76
2017-10-12T09:50:33.389Z,17.53
2017-10-12T09:51:33.333Z,17.54
2017-10-12T09:53:25.126Z,17.38
2017-10-12T09:54:25.070Z,17.38
2017-10-12T09:56:16.828Z,17.51
2017-10-12T09:57:16.774Z,17.47
2017-10-12T09:59:08.554Z,17.21
2017-10-12T10:00:08.494Z,17.22
2017-10-12T10:02:00.282Z,16.92
2017-10-12T10:03:00.228Z,17.45
2017-10-12T10:04:52.571Z,17.55
2017-10-12T10:05:52.312Z,17.71
2017-10-12T10:07:43.895Z,17.76
2017-10-12T10:08:43.840Z,17.68
2017-10-12T10:10:35.634Z,17.98
2017-10-12T10:11:35.554Z,18.09
2017-10-12T10:13:27.325Z,17.84
2017-10-12T10:14:27.265Z,17.91
2017-10-12T10:16:19.053Z,17.84
2017-10-12T10:17:18.996Z,18.02
2017-10-12T10:19:10.767Z,17.87
2017-10-12T10:20:10.699Z,17.87
2017-10-12T10:22:02.472Z,17.98
2017-10-12T10:23:02.416Z,17.87
2017-10-12T10:24:54.221Z,17.62
2017-10-12T10:25:54.154Z,17.54
2017-10-12T10:27:45.900Z,17.38
2017-10-12T10:28:45.844Z,17.42
2017-10-12T10:30:37.634Z,17.54
2017-10-12T10:31:37.572Z,17.45
2017-10-12T10:33:29.334Z,17.30
2017-10-12T10:34:29.278Z,17.27
2017-10-12T10:36:21.057Z,17.33
2017-10-12T10:37:20.990Z,17.30
2017-10-12T10:39:12.763Z,17.25
2017-10-12T10:40:12.708Z,17.06
2017-10-12T10:42:04.477Z,17.10
2017-10-12T10:43:04.417Z,17.14
2017-10-12T10:44:56.201Z,17.14
2017-10-12T10:45:56.146Z,17.03
2017-10-12T10:47:47.941Z,16.82
2017-10-12T10:48:47.856Z,16.80
2017-10-12T10:50:39.634Z,16.90
2017-10-12T10:51:39.571Z,16.81
2017-10-12T10:53:31.338Z,16.80
2017-10-12T10:54:31.283Z,16.80
2017-10-12T10:56:23.099Z,16.81
2017-10-12T10:57:22.994Z,16.80
2017-10-12T10:59:14.776Z,16.69
2017-10-12T11:00:14.724Z,16.66
2017-10-12T11:02:06.493Z,16.67
2017-10-12T11:03:06.424Z,16.70
2017-10-12T11:04:58.195Z,16.73
2017-10-12T11:05:58.139Z,16.81
2017-10-12T11:07:49.934Z,16.77
2017-10-12T11:08:49.855Z,16.82
2017-10-12T11:10:41.623Z,16.85
2017-10-12T11:11:41.565Z,16.91
2017-10-12T11:13:33.351Z,16.90
2017-10-12T11:14:33.296Z,16.78
2017-10-12T11:16:25.043Z,16.80
2017-10-12T11:17:24.991Z,16.80
2017-10-12T11:19:16.776Z,16.82
2017-10-12T11:20:16.713Z,16.69
2017-10-12T11:22:08.475Z,16.70
2017-10-12T11:23:08.419Z,16.69
2017-10-12T11:25:00.391Z,16.65
2017-10-12T11:26:00.331Z,16.59
2017-10-12T11:27:52.097Z,16.52
2017-10-12T11:28:52.040Z,16.67
2017-10-12T11:30:43.814Z,16.65
2017-10-12T11:31:43.749Z,16.63
2017-10-12T11:33:35.536Z,16.72
2017-10-12T11:34:35.481Z,16.70
2017-10-12T11:36:27.226Z,16.82
2017-10-12T11:37:27.172Z,17.00
2017-10-12T11:39:18.963Z,16.95
2017-10-12T11:40:18.898Z,16.82
2017-10-12T11:42:10.658Z,16.81
2017-10-12T11:43:10.601Z,16.77
2017-10-12T11:45:02.376Z,16.54
2017-10-12T11:46:02.316Z,16.47
2017-10-12T11:47:54.081Z,16.50
2017-10-12T11:48:54.025Z,16.41
2017-10-12T11:50:45.797Z,16.42
2017-10-12T11:51:45.740Z,16.34
2017-10-12T11:53:37.510Z,16.26
2017-10-12T11:54:37.445Z,16.16
2017-10-12T11:56:29.216Z,16.11
2017-10-12T11:57:29.156Z,16.17
2017-10-12T11:59:20.930Z,16.26
2017-10-12T12:00:20.868Z,16.32
2017-10-12T12:02:12.640Z,16.37
2017-10-12T12:03:12.580Z,16.45
2017-10-12T12:05:04.348Z,16.51
2017-10-12T12:06:04.308Z,16.65
2017-10-12T12:07:56.069Z,16.72
2017-10-12T12:08:55.998Z,16.77
2017-10-12T12:10:47.781Z,16.91
2017-10-12T12:11:47.726Z,17.03
2017-10-12T12:13:39.490Z,17.02
2017-10-12T12:14:39.421Z,16.92
2017-10-12T12:16:31.203Z,16.75
2017-10-12T12:17:31.148Z,16.82
2017-10-12T12:19:22.917Z,16.90
2017-10-12T12:20:22.856Z,16.90
2017-10-12T12:22:14.623Z,16.85
2017-10-12T12:23:14.564Z,16.77
2017-10-12T12:25:06.355Z,16.62
2017-10-12T12:26:06.301Z,16.72
2017-10-12T12:27:58.062Z,16.72
2017-10-12T12:28:57.997Z,16.65
2017-10-12T12:30:49.780Z,16.65
2017-10-12T12:31:49.719Z,16.70
2017-10-12T12:33:41.493Z,16.77
2017-10-12T12:34:41.422Z,16.78
2017-10-12T12:36:33.192Z,16.92
2017-10-12T12:37:33.135Z,16.99
2017-10-12T12:39:24.913Z,17.07
2017-10-12T12:40:24.847Z,17.09
2017-10-12T12:42:16.626Z,17.02
2017-10-12T12:43:16.569Z,17.05
2017-10-12T12:45:08.357Z,16.98
2017-10-12T12:46:08.297Z,17.07
2017-10-12T12:48:00.057Z,17.14
2017-10-12T12:49:00.002Z,17.09
2017-10-12T12:50:51.778Z,17.18
2017-10-12T12:51:51.721Z,17.20
2017-10-12T12:53:43.511Z,17.40
2017-10-12T12:54:43.432Z,17.39
2017-10-12T12:56:35.197Z,17.32
2017-10-12T12:57:35.137Z,17.40
2017-10-12T12:59:26.924Z,17.22
2017-10-12T13:00:26.869Z,17.06
2017-10-12T13:02:18.630Z,17.00
2017-10-12T13:03:18.561Z,17.02
2017-10-12T13:05:10.341Z,16.99
2017-10-12T13:06:10.290Z,16.98
2017-10-12T13:08:02.054Z,16.87
2017-10-12T13:09:01.994Z,16.81
2017-10-12T13:10:53.768Z,16.67
2017-10-12T13:11:53.707Z,16.66
2017-10-12T13:13:45.475Z,16.59
2017-10-12T13:14:45.420Z,16.57
2017-10-12T13:16:37.194Z,16.65
2017-10-12T13:17:37.132Z,16.54
2017-10-12T13:19:28.916Z,16.67
2017-10-12T13:20:28.865Z,16.63
2017-10-12T13:22:20.626Z,16.63
2017-10-12T13:23:20.557Z,16.55
2017-10-12T13:25:12.334Z,16.59
2017-10-12T13:26:12.281Z,16.55
2017-10-12T13:28:04.046Z,16.52
2017-10-12T13:29:03.984Z,16.57
2017-10-12T13:30:55.753Z,16.54
2017-10-12T13:31:55.698Z,16.62
2017-10-12T13:33:47.471Z,16.54
2017-10-12T13:34:47.407Z,16.63
2017-10-12T13:36:39.174Z,16.54
2017-10-12T13:37:39.119Z,16.60
2017-10-12T13:39:30.908Z,16.55
2017-10-12T13:40:30.829Z,16.57
2017-10-12T13:42:22.600Z,16.59
2017-10-12T13:43:22.539Z,16.42
2017-10-12T13:45:14.326Z,16.45
2017-10-12T13:46:14.252Z,16.40
2017-10-12T13:48:06.038Z,16.33
2017-10-12T13:49:05.966Z,16.27
2017-10-12T13:50:57.748Z,16.29
2017-10-12T13:51:57.689Z,16.37
2017-10-12T13:53:49.460Z,16.37
2017-10-12T13:54:49.394Z,16.32
2017-10-12T13:56:41.168Z,16.40
2017-10-12T13:57:41.109Z,16.50
2017-10-12T13:59:32.902Z,16.50
2017-10-12T14:00:32.817Z,16.48
2017-10-12T14:02:24.584Z,16.37
2017-10-12T14:03:24.529Z,16.37
2017-10-12T14:05:16.320Z,16.22
2017-10-12T14:06:16.241Z,16.16
2017-10-12T14:08:08.010Z,16.14
2017-10-12T14:09:07.952Z,16.01
2017-10-12T14:10:59.737Z,15.99
2017-10-12T14:11:59.684Z,16.04
2017-10-12T14:13:51.431Z,15.89
2017-10-12T14:14:51.380Z,15.96
2017-10-12T14:16:43.163Z,15.89
2017-10-12T14:17:43.100Z,15.92
2017-10-12T14:19:34.860Z,15.71
2017-10-12T14:20:34.802Z,15.77
2017-10-12T14:22:26.578Z,15.66
2017-10-12T14:23:26.518Z,15.68
2017-10-12T14:25:18.289Z,15.66
2017-10-12T14:26:18.224Z,15.67
2017-10-12T14:28:09.995Z,15.52
2017-10-12T14:29:09.939Z,15.56
2017-10-12T14:31:01.731Z,15.51
2017-10-12T14:32:01.648Z,15.55
2017-10-12T14:33:53.415Z,15.49
2017-10-12T14:34:53.359Z,15.51
2017-10-12T14:36:45.147Z,15.41
2017-10-12T14:37:45.071Z,15.41
2017-10-12T14:39:36.837Z,15.40
2017-10-12T14:40:36.780Z,15.43
2017-10-12T14:42:28.565Z,15.40
2017-10-12T14:43:28.510Z,15.40
2017-10-12T14:45:20.262Z,15.35
2017-10-12T14:46:20.206Z,15.35
2017-10-12T14:48:11.989Z,15.30
2017-10-12T14:49:11.927Z,15.33
2017-10-12T14:51:03.691Z,15.31
2017-10-12T14:52:03.632Z,15.27
2017-10-12T14:53:55.405Z,15.28
2017-10-12T14:54:55.345Z,15.23
2017-10-12T14:56:47.116Z,15.20
2017-10-12T14:57:47.056Z,15.31
2017-10-12T14:59:38.818Z,15.28
2017-10-12T15:00:38.762Z,15.30
2017-10-12T15:02:30.531Z,15.35
2017-10-12T15:03:30.469Z,15.35
2017-10-12T15:05:22.238Z,15.31
2017-10-12T15:06:22.183Z,15.20
2017-10-12T15:08:13.952Z,15.30
2017-10-12T15:09:13.889Z,15.30
2017-10-12T15:11:05.653Z,15.22
2017-10-12T15:12:05.597Z,15.20
2017-10-12T15:13:57.368Z,15.20
2017-10-12T15:14:57.303Z,15.20
2017-10-12T15:16:49.070Z,15.22
2017-10-12T15:17:49.014Z,15.18
2017-10-12T15:19:40.792Z,15.18
2017-10-12T15:20:40.723Z,15.13
2017-10-12T15:22:32.486Z,15.18
2017-10-12T15:23:32.431Z,15.12
2017-10-12T15:25:24.202Z,15.04
2017-10-12T15:26:24.137Z,15.07
2017-10-12T15:28:15.903Z,15.11
2017-10-12T15:29:15.851Z,14.97
2017-10-12T15:31:07.616Z,14.97
2017-10-12T15:32:07.551Z,14.94
2017-10-12T15:33:59.325Z,14.83
2017-10-12T15:34:59.264Z,14.78
2017-10-12T15:36:51.025Z,14.85
2017-10-12T15:37:50.969Z,14.83
2017-10-12T15:39:42.758Z,14.80
2017-10-12T15:40:42.681Z,14.75
2017-10-12T15:42:34.447Z,14.71
2017-10-12T15:43:34.388Z,14.82
2017-10-12T15:45:26.161Z,14.74
2017-10-12T15:46:26.099Z,14.64
2017-10-12T15:48:17.859Z,14.63
2017-10-12T15:49:17.800Z,14.67
2017-10-12T15:51:09.578Z,14.59
2017-10-12T15:52:09.516Z,14.59
2017-10-12T15:54:01.288Z,14.56
2017-10-12T15:55:01.228Z,14.54
2017-10-12T15:56:52.999Z,14.49
2017-10-12T15:57:52.935Z,14.54
2017-10-12T15:59:44.700Z,14.44
2017-10-12T16:00:44.643Z,14.44
2017-10-12T16:02:36.414Z,14.39
2017-10-12T16:03:36.354Z,14.39
2017-10-12T16:05:28.122Z,14.35
2017-10-12T16:06:28.057Z,14.38
2017-10-12T16:08:19.823Z,14.29
2017-10-12T16:09:19.768Z,14.29
2017-10-12T16:11:11.561Z,14.31
2017-10-12T16:12:11.477Z,14.31
2017-10-12T16:14:03.254Z,14.21
2017-10-12T16:15:03.182Z,14.16
2017-10-12T16:16:54.958Z,14.24
2017-10-12T16:17:54.894Z,14.17
2017-10-12T16:19:46.658Z,14.19
2017-10-12T16:20:46.601Z,14.09
2017-10-12T16:23:38.307Z,14.13
2017-10-12T16:25:30.073Z,14.04
2017-10-12T16:26:30.018Z,14.19
2017-10-12T16:28:21.792Z,14.04
2017-10-12T16:29:21.728Z,14.06
2017-10-12T16:31:13.498Z,14.04
2017-10-12T16:32:13.438Z,14.04
2017-10-12T16:34:05.200Z,14.04
2017-10-12T16:36:57.498Z,13.94
2017-10-12T16:37:57.245Z,13.90
2017-10-12T16:39:48.807Z,13.98
2017-10-12T16:40:48.750Z,13.87
2017-10-12T16:42:40.523Z,13.83
2017-10-12T16:43:40.461Z,13.83
2017-10-12T16:45:32.222Z,13.83
2017-10-12T16:46:32.157Z,13.87
2017-10-12T16:48:23.938Z,13.87
2017-10-12T16:49:23.869Z,13.76
2017-10-12T16:51:15.636Z,13.80
2017-10-12T16:52:15.578Z,13.69
2017-10-12T16:54:07.362Z,13.69
2017-10-12T16:55:07.294Z,13.65
2017-10-12T16:56:59.049Z,13.65
2017-10-12T16:57:58.988Z,13.61
2017-10-12T16:59:50.772Z,13.66
2017-10-12T17:00:50.711Z,13.61
2017-10-12T17:02:42.468Z,13.50
2017-10-12T17:03:42.401Z,13.48
2017-10-12T17:05:34.188Z,13.62
2017-10-12T17:06:34.127Z,13.53
2017-10-12T17:08:25.886Z,13.53
2017-10-12T17:09:25.813Z,13.57
2017-10-12T17:11:17.577Z,13.38
2017-10-12T17:12:17.523Z,13.51
2017-10-12T17:14:09.287Z,13.31
2017-10-12T17:15:09.226Z,13.29
2017-10-12T17:17:00.990Z,13.35
2017-10-12T17:18:00.933Z,13.35
2017-10-12T17:19:52.706Z,13.39
2017-10-12T17:20:52.642Z,13.36
2017-10-12T17:22:44.403Z,13.39
2017-10-12T17:25:36.117Z,13.29
2017-10-12T17:26:36.056Z,13.29
2017-10-12T17:28:27.824Z,13.31
2017-10-12T17:29:27.756Z,13.29
2017-10-12T17:31:19.528Z,13.29
2017-10-12T17:32:19.471Z,13.25
2017-10-12T17:34:11.241Z,13.29
2017-10-12T17:35:11.160Z,13.25
2017-10-12T17:37:02.942Z,13.24
2017-10-12T17:38:02.890Z,13.19
2017-10-12T17:39:54.645Z,13.19
2017-10-12T17:40:54.576Z,13.19
2017-10-12T17:42:46.359Z,13.17
2017-10-12T17:43:46.303Z,13.14
2017-10-12T17:45:38.061Z,13.12
2017-10-12T17:46:37.995Z,13.04
2017-10-12T17:48:29.779Z,13.06
2017-10-12T17:49:29.700Z,13.07
2017-10-12T17:51:21.466Z,13.06
2017-10-12T17:52:21.402Z,13.06
2017-10-12T17:55:13.109Z,13.09
2017-10-12T17:57:04.876Z,13.04
2017-10-12T17:58:04.814Z,13.01
2017-10-12T17:59:56.578Z,13.04
2017-10-12T18:00:56.520Z,13.04
2017-10-12T18:02:48.294Z,13.09
2017-10-12T18:03:48.228Z,13.04
2017-10-12T18:05:39.998Z,12.96
2017-10-12T18:06:39.926Z,12.99
2017-10-12T18:08:31.701Z,12.89
2017-10-12T18:09:31.648Z,12.95
2017-10-12T18:11:23.405Z,12.84
2017-10-12T18:12:23.338Z,12.80
2017-10-12T18:14:15.106Z,12.80
2017-10-12T18:15:15.064Z,12.76
2017-10-12T18:17:06.817Z,12.73
2017-10-12T18:18:06.750Z,12.80
2017-10-12T18:19:58.535Z,12.80
2017-10-12T18:20:58.455Z,12.71
2017-10-12T18:22:50.244Z,12.69
2017-10-12T18:23:50.161Z,12.76
2017-10-12T18:25:41.925Z,12.71
2017-10-12T18:26:41.865Z,12.67
2017-10-12T18:28:33.643Z,12.69
2017-10-12T18:29:33.575Z,12.62
2017-10-12T18:31:25.349Z,12.66